sensor_id;sensor_type;location;lat;lon;timestamp;pressure;altitude;pressure_sealevel;temperature;humidity
51261;BME280;61705;46.228;24.812;2023-04-26T00:00:33;96290.16;;;9.06;90.06
51261;BME280;61705;46.228;24.812;2023-04-26T00:03:00;96287.78;;;9.01;90.10
51261;BME280;61705;46.228;24.812;2023-04-26T00:05:27;96287.91;;;9.00;90.17
51261;BME280;61705;46.228;24.812;2023-04-26T00:07:55;96287.59;;;9.05;90.20
51261;BME280;61705;46.228;24.812;2023-04-26T00:10:21;96289.03;;;8.96;90.32
51261;BME280;61705;46.228;24.812;2023-04-26T00:12:48;96291.09;;;8.91;90.66
51261;BME280;61705;46.228;24.812;2023-04-26T00:15:15;96291.75;;;8.94;90.51
51261;BME280;61705;46.228;24.812;2023-04-26T00:17:42;96290.91;;;8.94;90.69
51261;BME280;61705;46.228;24.812;2023-04-26T00:20:10;96288.94;;;8.97;90.38
51261;BME280;61705;46.228;24.812;2023-04-26T00:22:38;96288.28;;;8.94;90.32
51261;BME280;61705;46.228;24.812;2023-04-26T00:25:05;96289.88;;;8.96;90.07
51261;BME280;61705;46.228;24.812;2023-04-26T00:27:32;96293.44;;;8.95;90.05
51261;BME280;61705;46.228;24.812;2023-04-26T00:29:58;96288.47;;;8.91;89.79
51261;BME280;61705;46.228;24.812;2023-04-26T00:32:25;96293.19;;;8.86;89.90
51261;BME280;61705;46.228;24.812;2023-04-26T00:34:52;96296.53;;;8.88;90.13
51261;BME280;61705;46.228;24.812;2023-04-26T00:37:18;96295.88;;;8.84;90.37
51261;BME280;61705;46.228;24.812;2023-04-26T00:39:46;96291.56;;;8.83;90.42
51261;BME280;61705;46.228;24.812;2023-04-26T00:42:13;96289.97;;;8.81;90.46
51261;BME280;61705;46.228;24.812;2023-04-26T00:44:40;96289.41;;;8.75;90.99
51261;BME280;61705;46.228;24.812;2023-04-26T00:47:06;96290.06;;;8.79;90.88
51261;BME280;61705;46.228;24.812;2023-04-26T00:49:33;96290.72;;;8.83;90.63
51261;BME280;61705;46.228;24.812;2023-04-26T00:52:00;96294.38;;;8.80;90.70
51261;BME280;61705;46.228;24.812;2023-04-26T00:54:27;96298.63;;;8.83;90.13
51261;BME280;61705;46.228;24.812;2023-04-26T00:56:54;96299.66;;;8.80;90.22
51261;BME280;61705;46.228;24.812;2023-04-26T00:59:21;96291.94;;;8.77;90.12
51261;BME280;61705;46.228;24.812;2023-04-26T01:01:48;96303.59;;;8.73;90.38
51261;BME280;61705;46.228;24.812;2023-04-26T01:04:15;96287.88;;;8.71;89.92
51261;BME280;61705;46.228;24.812;2023-04-26T01:06:43;96283.56;;;8.70;89.73
51261;BME280;61705;46.228;24.812;2023-04-26T01:09:09;96290.03;;;8.65;89.27
51261;BME280;61705;46.228;24.812;2023-04-26T01:11:41;96296.41;;;8.61;88.10
51261;BME280;61705;46.228;24.812;2023-04-26T01:14:09;96303.66;;;8.57;86.96
51261;BME280;61705;46.228;24.812;2023-04-26T01:16:36;96307.59;;;8.50;86.65
51261;BME280;61705;46.228;24.812;2023-04-26T01:19:10;96300.81;;;8.46;86.23
51261;BME280;61705;46.228;24.812;2023-04-26T01:21:38;96311.81;;;8.38;85.97
51261;BME280;61705;46.228;24.812;2023-04-26T01:24:06;96306.59;;;8.37;85.20
51261;BME280;61705;46.228;24.812;2023-04-26T01:26:34;96315.59;;;8.32;84.62
51261;BME280;61705;46.228;24.812;2023-04-26T01:29:15;96309.78;;;8.27;84.79
51261;BME280;61705;46.228;24.812;2023-04-26T01:31:42;96315.75;;;8.15;85.03
51261;BME280;61705;46.228;24.812;2023-04-26T01:34:09;96316.59;;;8.16;85.05
51261;BME280;61705;46.228;24.812;2023-04-26T01:36:36;96318.28;;;8.17;84.86
51261;BME280;61705;46.228;24.812;2023-04-26T01:39:03;96315.84;;;8.14;84.68
51261;BME280;61705;46.228;24.812;2023-04-26T01:41:30;96314.56;;;8.05;85.09
51261;BME280;61705;46.228;24.812;2023-04-26T01:43:58;96316.38;;;8.04;84.73
51261;BME280;61705;46.228;24.812;2023-04-26T01:46:25;96320.00;;;8.02;85.00
51261;BME280;61705;46.228;24.812;2023-04-26T01:48:52;96315.59;;;8.02;85.34
51261;BME280;61705;46.228;24.812;2023-04-26T01:51:19;96322.31;;;7.92;85.71
51261;BME280;61705;46.228;24.812;2023-04-26T01:53:45;96322.25;;;7.94;85.99
51261;BME280;61705;46.228;24.812;2023-04-26T01:56:12;96321.19;;;7.96;85.93
51261;BME280;61705;46.228;24.812;2023-04-26T01:58:39;96321.13;;;7.98;86.11
51261;BME280;61705;46.228;24.812;2023-04-26T02:01:07;96318.16;;;7.88;86.42
51261;BME280;61705;46.228;24.812;2023-04-26T02:03:34;96319.00;;;7.89;86.64
51261;BME280;61705;46.228;24.812;2023-04-26T02:06:01;96314.91;;;7.99;86.58
51261;BME280;61705;46.228;24.812;2023-04-26T02:08:28;96324.69;;;7.97;85.97
51261;BME280;61705;46.228;24.812;2023-04-26T02:10:55;96321.06;;;7.83;85.98
51261;BME280;61705;46.228;24.812;2023-04-26T02:13:22;96312.91;;;7.88;86.12
51261;BME280;61705;46.228;24.812;2023-04-26T02:15:49;96315.25;;;7.93;85.57
51261;BME280;61705;46.228;24.812;2023-04-26T02:18:17;96321.13;;;7.98;85.27
51261;BME280;61705;46.228;24.812;2023-04-26T02:20:47;96319.00;;;7.89;85.62
51261;BME280;61705;46.228;24.812;2023-04-26T02:23:14;96313.69;;;7.74;85.81
51261;BME280;61705;46.228;24.812;2023-04-26T02:25:44;96316.47;;;7.71;86.28
51261;BME280;61705;46.228;24.812;2023-04-26T02:28:11;96318.34;;;7.85;85.48
51261;BME280;61705;46.228;24.812;2023-04-26T02:30:37;96327.91;;;7.86;85.21
51261;BME280;61705;46.228;24.812;2023-04-26T02:33:04;96322.50;;;7.73;85.32
51261;BME280;61705;46.228;24.812;2023-04-26T02:35:31;96325.88;;;7.75;85.04
51261;BME280;61705;46.228;24.812;2023-04-26T02:37:58;96325.81;;;7.77;85.90
51261;BME280;61705;46.228;24.812;2023-04-26T02:40:24;96323.09;;;7.78;85.27
51261;BME280;61705;46.228;24.812;2023-04-26T02:42:51;96331.50;;;7.69;85.27
51261;BME280;61705;46.228;24.812;2023-04-26T02:45:18;96322.69;;;7.70;85.56
51261;BME280;61705;46.228;24.812;2023-04-26T02:47:44;96334.16;;;7.69;85.77
51261;BME280;61705;46.228;24.812;2023-04-26T02:50:11;96336.69;;;7.71;85.45
51261;BME280;61705;46.228;24.812;2023-04-26T02:52:38;96339.88;;;7.76;85.45
51261;BME280;61705;46.228;24.812;2023-04-26T02:55:05;96341.00;;;7.72;85.15
51261;BME280;61705;46.228;24.812;2023-04-26T02:57:34;96344.81;;;7.66;84.79
51261;BME280;61705;46.228;24.812;2023-04-26T03:00:00;96343.88;;;7.51;84.88
51261;BME280;61705;46.228;24.812;2023-04-26T03:02:27;96347.09;;;7.56;84.66
51261;BME280;61705;46.228;24.812;2023-04-26T03:04:54;96347.69;;;7.62;84.51
51261;BME280;61705;46.228;24.812;2023-04-26T03:07:21;96349.91;;;7.53;84.95
51261;BME280;61705;46.228;24.812;2023-04-26T03:09:48;96353.28;;;7.40;85.15
51261;BME280;61705;46.228;24.812;2023-04-26T03:12:15;96352.09;;;7.29;85.73
51261;BME280;61705;46.228;24.812;2023-04-26T03:14:41;96360.84;;;7.46;85.40
51261;BME280;61705;46.228;24.812;2023-04-26T03:17:08;96363.75;;;7.24;85.64
51261;BME280;61705;46.228;24.812;2023-04-26T03:19:35;96356.81;;;7.23;86.42
51261;BME280;61705;46.228;24.812;2023-04-26T03:22:02;96368.88;;;7.43;85.95
51261;BME280;61705;46.228;24.812;2023-04-26T03:24:28;96363.84;;;7.38;85.40
51261;BME280;61705;46.228;24.812;2023-04-26T03:26:56;96376.25;;;7.36;85.56
51261;BME280;61705;46.228;24.812;2023-04-26T03:29:23;96373.09;;;7.29;85.94
51261;BME280;61705;46.228;24.812;2023-04-26T03:31:49;96375.28;;;7.21;85.79
51261;BME280;61705;46.228;24.812;2023-04-26T03:34:16;96379.09;;;7.16;86.13
51261;BME280;61705;46.228;24.812;2023-04-26T03:36:43;96391.06;;;7.04;86.01
51261;BME280;61705;46.228;24.812;2023-04-26T03:39:10;96388.59;;;7.01;86.58
51261;BME280;61705;46.228;24.812;2023-04-26T03:41:36;96394.63;;;7.03;86.85
51261;BME280;61705;46.228;24.812;2023-04-26T03:44:05;96394.63;;;7.03;86.85
51261;BME280;61705;46.228;24.812;2023-04-26T03:46:32;96391.69;;;7.09;86.45
51261;BME280;61705;46.228;24.812;2023-04-26T03:49:08;96399.63;;;7.25;86.13
51261;BME280;61705;46.228;24.812;2023-04-26T03:51:34;57215.63;;;-144.75;100.00
51261;BME280;61705;46.228;24.812;2023-04-26T03:54:01;96405.84;;;7.40;85.99
51261;BME280;61705;46.228;24.812;2023-04-26T03:56:36;57215.63;;;-144.75;100.00
51261;BME280;61705;46.228;24.812;2023-04-26T03:59:09;96415.19;;;7.12;84.99
51261;BME280;61705;46.228;24.812;2023-04-26T04:01:36;96418.44;;;6.82;85.05
51261;BME280;61705;46.228;24.812;2023-04-26T04:04:03;96419.97;;;7.04;85.07
51261;BME280;61705;46.228;24.812;2023-04-26T04:06:30;96424.19;;;6.91;84.53
51261;BME280;61705;46.228;24.812;2023-04-26T04:09:07;96424.16;;;6.73;84.60
51261;BME280;61705;46.228;24.812;2023-04-26T04:11:55;96426.09;;;6.87;84.23
51261;BME280;61705;46.228;24.812;2023-04-26T04:14:21;96432.66;;;6.78;84.72
51261;BME280;61705;46.228;24.812;2023-04-26T04:16:48;96436.28;;;6.76;84.83
51261;BME280;61705;46.228;24.812;2023-04-26T04:19:14;96442.22;;;6.79;84.37
51261;BME280;61705;46.228;24.812;2023-04-26T04:21:41;96433.22;;;6.85;84.24
51261;BME280;61705;46.228;24.812;2023-04-26T04:24:11;96432.66;;;6.96;84.40
51261;BME280;61705;46.228;24.812;2023-04-26T04:27:02;96441.91;;;7.03;84.10
51261;BME280;61705;46.228;24.812;2023-04-26T04:29:31;96443.84;;;6.99;84.01
51261;BME280;61705;46.228;24.812;2023-04-26T04:31:58;96448.41;;;6.96;84.02
51261;BME280;61705;46.228;24.812;2023-04-26T04:34:27;96448.69;;;7.07;83.21
51261;BME280;61705;46.228;24.812;2023-04-26T04:36:54;96455.97;;;7.02;83.47
51261;BME280;61705;46.228;24.812;2023-04-26T04:39:20;96461.16;;;7.03;83.60
51261;BME280;61705;46.228;24.812;2023-04-26T04:41:47;96454.09;;;7.04;83.46
51261;BME280;61705;46.228;24.812;2023-04-26T04:44:17;96460.47;;;7.00;83.57
51261;BME280;61705;46.228;24.812;2023-04-26T04:46:43;96464.88;;;6.99;83.50
51261;BME280;61705;46.228;24.812;2023-04-26T04:49:11;96466.50;;;7.02;83.52
51261;BME280;61705;46.228;24.812;2023-04-26T04:51:37;96467.34;;;7.02;83.58
51261;BME280;61705;46.228;24.812;2023-04-26T04:56:37;96478.69;;;7.03;83.79
51261;BME280;61705;46.228;24.812;2023-04-26T04:59:03;96473.13;;;6.92;83.06
51261;BME280;61705;46.228;24.812;2023-04-26T05:01:30;96480.75;;;6.79;84.02
51261;BME280;61705;46.228;24.812;2023-04-26T05:03:58;96475.13;;;6.86;83.62
51261;BME280;61705;46.228;24.812;2023-04-26T05:06:26;96477.53;;;6.91;83.93
51261;BME280;61705;46.228;24.812;2023-04-26T05:08:53;96484.72;;;7.05;83.17
51261;BME280;61705;46.228;24.812;2023-04-26T05:11:20;96479.47;;;6.87;83.21
51261;BME280;61705;46.228;24.812;2023-04-26T05:13:47;96485.41;;;7.08;82.36
51261;BME280;61705;46.228;24.812;2023-04-26T05:16:17;96483.34;;;6.98;82.66
51261;BME280;61705;46.228;24.812;2023-04-26T05:18:46;96480.84;;;7.12;82.19
51261;BME280;61705;46.228;24.812;2023-04-26T05:21:21;96483.09;;;7.02;81.87
51261;BME280;61705;46.228;24.812;2023-04-26T05:23:48;96483.88;;;7.04;81.47
51261;BME280;61705;46.228;24.812;2023-04-26T05:26:16;96491.91;;;7.01;81.39
51261;BME280;61705;46.228;24.812;2023-04-26T05:28:42;96484.63;;;7.06;81.49
51261;BME280;61705;46.228;24.812;2023-04-26T05:31:09;96486.00;;;7.13;81.50
51261;BME280;61705;46.228;24.812;2023-04-26T05:33:36;96489.47;;;7.31;81.32
51261;BME280;61705;46.228;24.812;2023-04-26T05:36:03;96486.25;;;7.26;80.80
51261;BME280;61705;46.228;24.812;2023-04-26T05:38:30;96485.56;;;7.23;81.11
51261;BME280;61705;46.228;24.812;2023-04-26T05:40:57;96486.69;;;7.34;81.04
51261;BME280;61705;46.228;24.812;2023-04-26T05:43:26;96502.59;;;7.31;81.07
51261;BME280;61705;46.228;24.812;2023-04-26T05:45:53;96501.75;;;7.31;81.33
51261;BME280;61705;46.228;24.812;2023-04-26T05:48:19;96506.28;;;7.29;81.96
51261;BME280;61705;46.228;24.812;2023-04-26T05:50:47;96508.66;;;7.33;81.92
51261;BME280;61705;46.228;24.812;2023-04-26T05:53:14;96512.13;;;7.34;82.47
51261;BME280;61705;46.228;24.812;2023-04-26T05:55:41;96516.47;;;7.35;82.52
51261;BME280;61705;46.228;24.812;2023-04-26T05:58:08;96517.63;;;7.29;82.13
51261;BME280;61705;46.228;24.812;2023-04-26T06:00:40;96521.88;;;7.32;81.38
51261;BME280;61705;46.228;24.812;2023-04-26T06:03:06;96516.28;;;7.38;81.41
51261;BME280;61705;46.228;24.812;2023-04-26T06:05:34;96528.28;;;7.26;81.03
51261;BME280;61705;46.228;24.812;2023-04-26T06:08:01;96523.28;;;7.22;81.17
51261;BME280;61705;46.228;24.812;2023-04-26T06:10:28;96538.25;;;7.20;81.36
51261;BME280;61705;46.228;24.812;2023-04-26T06:12:54;96538.50;;;7.15;81.35
51261;BME280;61705;46.228;24.812;2023-04-26T06:15:21;96536.94;;;7.11;81.49
51261;BME280;61705;46.228;24.812;2023-04-26T06:17:48;96543.34;;;7.05;81.16
51261;BME280;61705;46.228;24.812;2023-04-26T06:20:14;96540.72;;;7.05;81.47
51261;BME280;61705;46.228;24.812;2023-04-26T06:22:41;96547.53;;;7.09;81.41
51261;BME280;61705;46.228;24.812;2023-04-26T06:25:08;96546.13;;;7.02;81.54
51261;BME280;61705;46.228;24.812;2023-04-26T06:27:35;96549.38;;;7.07;81.61
51261;BME280;61705;46.228;24.812;2023-04-26T06:30:01;96546.91;;;7.04;82.21
51261;BME280;61705;46.228;24.812;2023-04-26T06:32:28;96551.84;;;7.10;82.25
51261;BME280;61705;46.228;24.812;2023-04-26T06:34:55;96556.19;;;7.11;82.37
51261;BME280;61705;46.228;24.812;2023-04-26T06:37:22;96546.53;;;6.95;82.50
51261;BME280;61705;46.228;24.812;2023-04-26T06:39:48;96559.66;;;7.12;82.56
51261;BME280;61705;46.228;24.812;2023-04-26T06:42:15;96556.19;;;7.11;82.85
51261;BME280;61705;46.228;24.812;2023-04-26T06:44:42;96563.59;;;7.21;81.75
51261;BME280;61705;46.228;24.812;2023-04-26T06:47:08;96560.28;;;7.17;81.01
51261;BME280;61705;46.228;24.812;2023-04-26T06:49:36;96560.28;;;7.17;80.58
51261;BME280;61705;46.228;24.812;2023-04-26T06:52:03;96559.56;;;7.13;80.30
51261;BME280;61705;46.228;24.812;2023-04-26T06:54:34;96568.25;;;7.16;80.39
51261;BME280;61705;46.228;24.812;2023-04-26T06:57:08;96575.59;;;7.26;80.75
51261;BME280;61705;46.228;24.812;2023-04-26T06:59:34;96581.06;;;7.22;80.26
51261;BME280;61705;46.228;24.812;2023-04-26T07:02:04;96578.66;;;7.17;79.98
51261;BME280;61705;46.228;24.812;2023-04-26T07:04:34;96584.75;;;7.18;80.61
51261;BME280;61705;46.228;24.812;2023-04-26T07:07:05;96590.88;;;7.18;81.08
51261;BME280;61705;46.228;24.812;2023-04-26T07:09:32;96598.97;;;7.13;81.32
51261;BME280;61705;46.228;24.812;2023-04-26T07:11:58;96607.66;;;7.16;81.41
51261;BME280;61705;46.228;24.812;2023-04-26T07:14:25;96606.81;;;7.15;81.60
51261;BME280;61705;46.228;24.812;2023-04-26T07:16:52;96606.66;;;7.18;81.37
51261;BME280;61705;46.228;24.812;2023-04-26T07:19:18;96604.03;;;7.18;81.21
51261;BME280;61705;46.228;24.812;2023-04-26T07:21:47;96609.19;;;7.20;81.32
51261;BME280;61705;46.228;24.812;2023-04-26T07:24:14;96610.16;;;7.36;80.31
51261;BME280;61705;46.228;24.812;2023-04-26T07:26:40;96616.25;;;7.36;79.78
51261;BME280;61705;46.228;24.812;2023-04-26T07:29:07;96612.06;;;7.32;79.54
51261;BME280;61705;46.228;24.812;2023-04-26T07:31:33;96617.78;;;7.41;79.65
51261;BME280;61705;46.228;24.812;2023-04-26T07:34:01;96616.50;;;7.49;78.91
51261;BME280;61705;46.228;24.812;2023-04-26T07:36:27;96624.22;;;7.52;78.16
51261;BME280;61705;46.228;24.812;2023-04-26T07:38:54;96626.06;;;7.50;77.94
51261;BME280;61705;46.228;24.812;2023-04-26T07:41:21;96639.44;;;7.46;78.38
51261;BME280;61705;46.228;24.812;2023-04-26T07:43:50;96643.59;;;7.32;78.81
51261;BME280;61705;46.228;24.812;2023-04-26T07:46:19;96653.63;;;7.24;78.92
51261;BME280;61705;46.228;24.812;2023-04-26T07:48:46;96648.69;;;7.18;79.36
51261;BME280;61705;46.228;24.812;2023-04-26T07:51:13;96643.59;;;7.15;80.47
51261;BME280;61705;46.228;24.812;2023-04-26T07:53:40;96646.44;;;7.28;80.69
51261;BME280;61705;46.228;24.812;2023-04-26T07:56:07;96652.66;;;7.44;81.03
51261;BME280;61705;46.228;24.812;2023-04-26T07:58:35;96651.81;;;7.44;80.94
51261;BME280;61705;46.228;24.812;2023-04-26T08:01:02;96652.59;;;7.46;81.16
51261;BME280;61705;46.228;24.812;2023-04-26T08:03:29;96656.66;;;7.51;81.23
51261;BME280;61705;46.228;24.812;2023-04-26T08:05:57;96656.38;;;7.57;79.76
51261;BME280;61705;46.228;24.812;2023-04-26T08:08:27;96661.19;;;7.49;79.17
51261;BME280;61705;46.228;24.812;2023-04-26T08:10:54;96671.19;;;7.41;79.43
51261;BME280;61705;46.228;24.812;2023-04-26T08:13:21;96670.50;;;7.55;79.74
51261;BME280;61705;46.228;24.812;2023-04-26T08:15:48;57215.63;;;-144.75;100.00
51261;BME280;61705;46.228;24.812;2023-04-26T08:18:15;57215.63;;;-144.75;100.00
51261;BME280;61705;46.228;24.812;2023-04-26T08:20:44;57215.63;;;-144.75;100.00
51261;BME280;61705;46.228;24.812;2023-04-26T08:23:11;57215.63;;;-144.75;100.00
51261;BME280;61705;46.228;24.812;2023-04-26T08:25:38;57215.63;;;-144.75;100.00
51261;BME280;61705;46.228;24.812;2023-04-26T08:28:04;57215.63;;;-144.75;100.00
51261;BME280;61705;46.228;24.812;2023-04-26T08:30:33;57215.63;;;-144.75;100.00
51261;BME280;61705;46.228;24.812;2023-04-26T08:33:00;57215.63;;;-144.75;100.00
51261;BME280;61705;46.228;24.812;2023-04-26T08:35:27;57215.63;;;-144.75;100.00
51261;BME280;61705;46.228;24.812;2023-04-26T08:37:53;57215.63;;;-144.75;100.00
51261;BME280;61705;46.228;24.812;2023-04-26T08:42:53;96682.38;;;7.81;77.98
51261;BME280;61705;46.228;24.812;2023-04-26T08:45:20;96681.03;;;7.72;78.53
51261;BME280;61705;46.228;24.812;2023-04-26T08:47:48;96684.38;;;7.76;78.57
51261;BME280;61705;46.228;24.812;2023-04-26T08:50:20;96691.03;;;7.83;78.50
51261;BME280;61705;46.228;24.812;2023-04-26T08:52:49;96690.88;;;7.86;78.08
51261;BME280;61705;46.228;24.812;2023-04-26T08:55:18;96689.25;;;7.83;78.69
51261;BME280;61705;46.228;24.812;2023-04-26T08:57:49;96692.81;;;7.82;78.79
51261;BME280;61705;46.228;24.812;2023-04-26T09:00:17;96687.09;;;7.92;77.96
51261;BME280;61705;46.228;24.812;2023-04-26T09:02:47;96683.84;;;8.04;78.05
51261;BME280;61705;46.228;24.812;2023-04-26T09:05:15;96695.59;;;7.97;77.63
51261;BME280;61705;46.228;24.812;2023-04-26T09:07:46;96697.03;;;8.20;77.10
51261;BME280;61705;46.228;24.812;2023-04-26T09:10:17;96694.53;;;8.34;76.21
51261;BME280;61705;46.228;24.812;2023-04-26T09:12:51;96704.22;;;8.51;76.47
51261;BME280;61705;46.228;24.812;2023-04-26T09:15:22;96704.38;;;8.30;77.35
51261;BME280;61705;46.228;24.812;2023-04-26T09:17:49;96710.69;;;8.11;77.92
51261;BME280;61705;46.228;24.812;2023-04-26T09:22:49;96713.38;;;7.92;78.68
51261;BME280;61705;46.228;24.812;2023-04-26T09:25:18;96710.22;;;7.85;79.38
51261;BME280;61705;46.228;24.812;2023-04-26T09:27:51;96723.28;;;7.69;78.32
51261;BME280;61705;46.228;24.812;2023-04-26T09:30:18;96714.75;;;7.64;78.49
51261;BME280;61705;46.228;24.812;2023-04-26T09:35:21;96726.38;;;7.60;79.21
51261;BME280;61705;46.228;24.812;2023-04-26T09:40:49;96722.91;;;7.77;79.14
51261;BME280;61705;46.228;24.812;2023-04-26T09:43:17;96736.13;;;7.75;78.69
51261;BME280;61705;46.228;24.812;2023-04-26T09:45:48;96732.63;;;7.75;78.36
51261;BME280;61705;46.228;24.812;2023-04-26T09:50:44;96731.69;;;7.76;79.07
51261;BME280;61705;46.228;24.812;2023-04-26T09:55:54;96736.13;;;7.75;78.36
51261;BME280;61705;46.228;24.812;2023-04-26T09:58:21;96738.59;;;7.96;78.32
51261;BME280;61705;46.228;24.812;2023-04-26T10:00:51;96735.75;;;8.18;78.31
51261;BME280;61705;46.228;24.812;2023-04-26T10:03:19;96745.03;;;8.25;78.36
51261;BME280;61705;46.228;24.812;2023-04-26T10:05:46;96748.22;;;8.31;78.76
51261;BME280;61705;46.228;24.812;2023-04-26T10:08:13;96744.72;;;8.31;79.02
51261;BME280;61705;46.228;24.812;2023-04-26T10:10:43;96748.19;;;8.66;78.41
51261;BME280;61705;46.228;24.812;2023-04-26T10:13:11;96745.28;;;8.71;78.09
51261;BME280;61705;46.228;24.812;2023-04-26T10:15:40;96745.38;;;8.69;78.07
51261;BME280;61705;46.228;24.812;2023-04-26T10:18:07;96743.72;;;8.84;77.72
51261;BME280;61705;46.228;24.812;2023-04-26T10:20:39;96749.84;;;9.00;77.14
51261;BME280;61705;46.228;24.812;2023-04-26T10:23:15;96744.91;;;8.94;77.16
51261;BME280;61705;46.228;24.812;2023-04-26T10:25:45;96750.50;;;9.37;75.79
51261;BME280;61705;46.228;24.812;2023-04-26T10:28:12;96758.22;;;9.24;74.46
51261;BME280;61705;46.228;24.812;2023-04-26T10:30:58;96753.75;;;9.09;73.70
51261;BME280;61705;46.228;24.812;2023-04-26T10:33:25;96751.88;;;8.95;74.56
51261;BME280;61705;46.228;24.812;2023-04-26T10:36:11;96752.28;;;8.88;75.07
51261;BME280;61705;46.228;24.812;2023-04-26T10:39:17;96759.63;;;8.98;75.37
51261;BME280;61705;46.228;24.812;2023-04-26T10:41:43;96762.38;;;9.13;75.52
51261;BME280;61705;46.228;24.812;2023-04-26T10:44:36;96771.72;;;9.18;74.73
51261;BME280;61705;46.228;24.812;2023-04-26T10:47:19;96766.63;;;9.15;75.41
51261;BME280;61705;46.228;24.812;2023-04-26T10:49:47;96759.66;;;9.62;73.87
51261;BME280;61705;46.228;24.812;2023-04-26T10:52:15;96763.13;;;9.78;72.86
51261;BME280;61705;46.228;24.812;2023-04-26T10:54:57;96771.44;;;9.86;73.42
51261;BME280;61705;46.228;24.812;2023-04-26T10:57:52;96768.00;;;9.54;74.07
51261;BME280;61705;46.228;24.812;2023-04-26T11:00:27;96770.38;;;9.27;73.85
51261;BME280;61705;46.228;24.812;2023-04-26T11:03:02;96771.47;;;9.23;74.64
51261;BME280;61705;46.228;24.812;2023-04-26T11:08:18;96777.69;;;9.38;73.39
51261;BME280;61705;46.228;24.812;2023-04-26T11:10:50;96785.97;;;9.47;73.56
51261;BME280;61705;46.228;24.812;2023-04-26T11:13:18;96790.53;;;9.91;73.15
51261;BME280;61705;46.228;24.812;2023-04-26T11:15:45;96789.97;;;10.01;72.89
51261;BME280;61705;46.228;24.812;2023-04-26T11:18:18;96789.91;;;9.86;71.74
51261;BME280;61705;46.228;24.812;2023-04-26T11:20:45;96795.03;;;9.89;72.80
51261;BME280;61705;46.228;24.812;2023-04-26T11:23:12;96800.34;;;10.19;72.60
51261;BME280;61705;46.228;24.812;2023-04-26T11:25:39;96792.22;;;9.92;72.74
51261;BME280;61705;46.228;24.812;2023-04-26T11:28:06;96797.66;;;9.73;74.09
51261;BME280;61705;46.228;24.812;2023-04-26T11:30:33;96789.94;;;9.70;73.80
51261;BME280;61705;46.228;24.812;2023-04-26T11:33:01;96795.59;;;9.15;74.93
51261;BME280;61705;46.228;24.812;2023-04-26T11:35:37;96795.66;;;8.82;75.07
51261;BME280;61705;46.228;24.812;2023-04-26T11:38:04;96798.59;;;9.25;74.64
51261;BME280;61705;46.228;24.812;2023-04-26T11:40:32;96807.81;;;9.49;74.69
51261;BME280;61705;46.228;24.812;2023-04-26T11:43:08;96800.75;;;9.82;73.63
51261;BME280;61705;46.228;24.812;2023-04-26T11:45:38;96805.19;;;10.11;73.36
51261;BME280;61705;46.228;24.812;2023-04-26T11:48:06;96800.41;;;10.34;73.20
51261;BME280;61705;46.228;24.812;2023-04-26T11:50:37;96802.44;;;10.59;73.11
51261;BME280;61705;46.228;24.812;2023-04-26T11:53:05;96800.22;;;10.67;72.71
51261;BME280;61705;46.228;24.812;2023-04-26T11:55:33;96794.41;;;10.46;72.17
51261;BME280;61705;46.228;24.812;2023-04-26T11:58:08;96803.41;;;10.12;72.39
51261;BME280;61705;46.228;24.812;2023-04-26T12:00:35;96804.94;;;10.16;73.05
51261;BME280;61705;46.228;24.812;2023-04-26T12:03:05;96804.66;;;10.20;71.75
51261;BME280;61705;46.228;24.812;2023-04-26T12:05:38;96807.09;;;10.09;72.47
51261;BME280;61705;46.228;24.812;2023-04-26T12:08:05;96808.09;;;10.23;70.83
51261;BME280;61705;46.228;24.812;2023-04-26T12:10:34;96803.31;;;10.13;70.54
51261;BME280;61705;46.228;24.812;2023-04-26T12:13:02;96810.22;;;10.16;71.00
51261;BME280;61705;46.228;24.812;2023-04-26T12:15:32;96805.06;;;9.99;70.82
51261;BME280;61705;46.228;24.812;2023-04-26T12:18:06;96802.94;;;9.89;71.31
51261;BME280;61705;46.228;24.812;2023-04-26T12:20:39;96807.03;;;9.79;71.47
51261;BME280;61705;46.228;24.812;2023-04-26T12:23:07;96806.78;;;9.84;72.32
51261;BME280;61705;46.228;24.812;2023-04-26T12:25:56;96810.13;;;9.71;72.91
51261;BME280;61705;46.228;24.812;2023-04-26T12:28:27;96820.06;;;9.82;73.48
51261;BME280;61705;46.228;24.812;2023-04-26T12:30:54;96810.00;;;9.73;73.66
51261;BME280;61705;46.228;24.812;2023-04-26T12:33:21;96816.31;;;9.86;73.94
51261;BME280;61705;46.228;24.812;2023-04-26T12:35:51;96821.94;;;9.80;73.75
51261;BME280;61705;46.228;24.812;2023-04-26T12:38:19;96817.75;;;9.76;73.80
51261;BME280;61705;46.228;24.812;2023-04-26T12:40:48;96811.97;;;9.69;74.63
51261;BME280;61705;46.228;24.812;2023-04-26T12:43:15;96815.03;;;9.78;74.42
51261;BME280;61705;46.228;24.812;2023-04-26T12:45:42;96810.88;;;9.73;74.94
51261;BME280;61705;46.228;24.812;2023-04-26T12:48:09;96817.25;;;9.69;74.86
51261;BME280;61705;46.228;24.812;2023-04-26T12:50:37;96810.53;;;9.64;75.00
51261;BME280;61705;46.228;24.812;2023-04-26T12:53:04;96820.75;;;9.54;75.61
51261;BME280;61705;46.228;24.812;2023-04-26T12:55:30;96821.78;;;9.52;75.92
51261;BME280;61705;46.228;24.812;2023-04-26T12:57:58;96826.28;;;9.81;75.25
51261;BME280;61705;46.228;24.812;2023-04-26T13:00:25;96820.81;;;9.53;74.99
51261;BME280;61705;46.228;24.812;2023-04-26T13:02:52;96822.25;;;9.42;75.85
51261;BME280;61705;46.228;24.812;2023-04-26T13:05:19;96831.19;;;9.40;76.44
51261;BME280;61705;46.228;24.812;2023-04-26T13:07:46;96827.34;;;9.30;75.55
51261;BME280;61705;46.228;24.812;2023-04-26T13:10:13;96829.97;;;9.14;75.92
51261;BME280;61705;46.228;24.812;2023-04-26T13:12:40;96829.75;;;9.01;76.51
51261;BME280;61705;46.228;24.812;2023-04-26T13:15:07;96841.97;;;8.86;76.76
51261;BME280;61705;46.228;24.812;2023-04-26T13:17:37;96841.50;;;8.78;77.22
51261;BME280;61705;46.228;24.812;2023-04-26T13:20:05;96844.53;;;8.70;77.73
51261;BME280;61705;46.228;24.812;2023-04-26T13:22:33;96857.31;;;8.61;77.81
51261;BME280;61705;46.228;24.812;2023-04-26T13:25:00;96849.66;;;8.56;78.04